sensor_id;sensor_type;location;lat;lon;timestamp;P1;durP1;ratioP1;P2;durP2;ratioP2
22916;SDS011;11624;53.250;7.456;2023-10-31T00:01:30;13.32;;;5.00;;
22916;SDS011;11624;53.250;7.456;2023-10-31T00:03:59;12.73;;;4.82;;
22916;SDS011;11624;53.250;7.456;2023-10-31T00:06:28;13.65;;;5.07;;
22916;SDS011;11624;53.250;7.456;2023-10-31T00:08:57;17.02;;;5.20;;
22916;SDS011;11624;53.250;7.456;2023-10-31T00:11:25;12.27;;;4.90;;
22916;SDS011;11624;53.250;7.456;2023-10-31T00:13:54;14.77;;;5.30;;
22916;SDS011;11624;53.250;7.456;2023-10-31T00:16:22;14.63;;;5.05;;
22916;SDS011;11624;53.250;7.456;2023-10-31T00:18:50;16.25;;;5.70;;
22916;SDS011;11624;53.250;7.456;2023-10-31T00:21:19;14.38;;;5.70;;
22916;SDS011;11624;53.250;7.456;2023-10-31T00:23:48;13.55;;;5.05;;
22916;SDS011;11624;53.250;7.456;2023-10-31T00:26:17;16.27;;;5.38;;
22916;SDS011;11624;53.250;7.456;2023-10-31T00:28:52;16.08;;;6.15;;
22916;SDS011;11624;53.250;7.456;2023-10-31T00:31:20;15.48;;;5.63;;
22916;SDS011;11624;53.250;7.456;2023-10-31T00:33:49;16.63;;;6.70;;
22916;SDS011;11624;53.250;7.456;2023-10-31T00:36:17;17.15;;;6.38;;
22916;SDS011;11624;53.250;7.456;2023-10-31T00:38:45;17.63;;;6.80;;
22916;SDS011;11624;53.250;7.456;2023-10-31T00:41:16;17.40;;;7.00;;
22916;SDS011;11624;53.250;7.456;2023-10-31T00:43:45;17.38;;;6.22;;
22916;SDS011;11624;53.250;7.456;2023-10-31T00:46:14;19.70;;;6.57;;
22916;SDS011;11624;53.250;7.456;2023-10-31T00:48:42;19.10;;;6.45;;
22916;SDS011;11624;53.250;7.456;2023-10-31T00:51:10;17.92;;;7.00;;
22916;SDS011;11624;53.250;7.456;2023-10-31T00:53:39;18.27;;;6.72;;
22916;SDS011;11624;53.250;7.456;2023-10-31T00:56:07;16.30;;;6.43;;
22916;SDS011;11624;53.250;7.456;2023-10-31T00:58:37;16.48;;;6.80;;
22916;SDS011;11624;53.250;7.456;2023-10-31T01:01:06;17.35;;;6.30;;
22916;SDS011;11624;53.250;7.456;2023-10-31T01:03:34;16.90;;;6.25;;
22916;SDS011;11624;53.250;7.456;2023-10-31T01:06:04;13.40;;;5.85;;
22916;SDS011;11624;53.250;7.456;2023-10-31T01:08:32;15.43;;;5.90;;
22916;SDS011;11624;53.250;7.456;2023-10-31T01:11:00;16.63;;;6.38;;
22916;SDS011;11624;53.250;7.456;2023-10-31T01:13:29;16.25;;;6.40;;
22916;SDS011;11624;53.250;7.456;2023-10-31T01:15:59;18.85;;;6.15;;
22916;SDS011;11624;53.250;7.456;2023-10-31T01:18:27;13.45;;;5.68;;
22916;SDS011;11624;53.250;7.456;2023-10-31T01:20:55;15.85;;;6.10;;
22916;SDS011;11624;53.250;7.456;2023-10-31T01:23:24;16.10;;;5.90;;
22916;SDS011;11624;53.250;7.456;2023-10-31T01:25:53;16.50;;;6.40;;
22916;SDS011;11624;53.250;7.456;2023-10-31T01:28:21;14.35;;;5.53;;
22916;SDS011;11624;53.250;7.456;2023-10-31T01:30:49;16.42;;;6.10;;
22916;SDS011;11624;53.250;7.456;2023-10-31T01:33:19;14.57;;;5.85;;
22916;SDS011;11624;53.250;7.456;2023-10-31T01:35:48;19.75;;;6.32;;
22916;SDS011;11624;53.250;7.456;2023-10-31T01:38:16;16.13;;;5.90;;
22916;SDS011;11624;53.250;7.456;2023-10-31T01:40:48;14.93;;;6.43;;
22916;SDS011;11624;53.250;7.456;2023-10-31T01:43:28;17.63;;;6.30;;
22916;SDS011;11624;53.250;7.456;2023-10-31T01:45:57;15.77;;;6.38;;
22916;SDS011;11624;53.250;7.456;2023-10-31T01:48:28;13.73;;;6.10;;
22916;SDS011;11624;53.250;7.456;2023-10-31T01:50:58;17.88;;;6.45;;
22916;SDS011;11624;53.250;7.456;2023-10-31T01:53:29;15.80;;;5.95;;
22916;SDS011;11624;53.250;7.456;2023-10-31T01:56:00;17.50;;;5.90;;
22916;SDS011;11624;53.250;7.456;2023-10-31T01:58:30;18.02;;;5.85;;
22916;SDS011;11624;53.250;7.456;2023-10-31T02:01:02;17.63;;;5.95;;
22916;SDS011;11624;53.250;7.456;2023-10-31T02:03:33;15.00;;;5.97;;
22916;SDS011;11624;53.250;7.456;2023-10-31T02:06:02;17.77;;;6.22;;
22916;SDS011;11624;53.250;7.456;2023-10-31T02:08:30;16.05;;;6.32;;
22916;SDS011;11624;53.250;7.456;2023-10-31T02:10:59;15.43;;;5.82;;
22916;SDS011;11624;53.250;7.456;2023-10-31T02:13:27;17.10;;;6.07;;
22916;SDS011;11624;53.250;7.456;2023-10-31T02:15:56;14.93;;;6.72;;
22916;SDS011;11624;53.250;7.456;2023-10-31T02:18:24;17.33;;;6.70;;
22916;SDS011;11624;53.250;7.456;2023-10-31T02:20:54;17.02;;;6.60;;
22916;SDS011;11624;53.250;7.456;2023-10-31T02:23:24;15.48;;;6.40;;
22916;SDS011;11624;53.250;7.456;2023-10-31T02:25:52;20.70;;;6.80;;
22916;SDS011;11624;53.250;7.456;2023-10-31T02:28:21;15.40;;;5.85;;
22916;SDS011;11624;53.250;7.456;2023-10-31T02:30:54;18.85;;;6.55;;
22916;SDS011;11624;53.250;7.456;2023-10-31T02:33:22;18.98;;;6.65;;
22916;SDS011;11624;53.250;7.456;2023-10-31T02:35:51;21.67;;;6.85;;
22916;SDS011;11624;53.250;7.456;2023-10-31T02:38:19;16.30;;;6.30;;
22916;SDS011;11624;53.250;7.456;2023-10-31T02:40:49;17.75;;;5.97;;
22916;SDS011;11624;53.250;7.456;2023-10-31T02:43:17;19.45;;;6.22;;
22916;SDS011;11624;53.250;7.456;2023-10-31T02:45:46;16.98;;;6.82;;
22916;SDS011;11624;53.250;7.456;2023-10-31T02:48:14;17.30;;;6.22;;
22916;SDS011;11624;53.250;7.456;2023-10-31T02:50:43;14.63;;;5.70;;
22916;SDS011;11624;53.250;7.456;2023-10-31T02:53:11;17.35;;;6.55;;
22916;SDS011;11624;53.250;7.456;2023-10-31T02:55:40;13.88;;;4.93;;
22916;SDS011;11624;53.250;7.456;2023-10-31T02:58:09;9.10;;;3.05;;
22916;SDS011;11624;53.250;7.456;2023-10-31T03:00:38;7.85;;;2.30;;
22916;SDS011;11624;53.250;7.456;2023-10-31T03:03:07;5.95;;;1.77;;
22916;SDS011;11624;53.250;7.456;2023-10-31T03:05:35;5.82;;;1.55;;
22916;SDS011;11624;53.250;7.456;2023-10-31T03:08:04;7.32;;;1.80;;
22916;SDS011;11624;53.250;7.456;2023-10-31T03:10:34;8.55;;;1.55;;
22916;SDS011;11624;53.250;7.456;2023-10-31T03:13:02;8.68;;;1.73;;
22916;SDS011;11624;53.250;7.456;2023-10-31T03:15:32;5.60;;;1.80;;
22916;SDS011;11624;53.250;7.456;2023-10-31T03:18:00;9.35;;;2.03;;
22916;SDS011;11624;53.250;7.456;2023-10-31T03:20:29;6.60;;;1.85;;
22916;SDS011;11624;53.250;7.456;2023-10-31T03:22:58;5.13;;;1.42;;
22916;SDS011;11624;53.250;7.456;2023-10-31T03:25:26;7.53;;;2.08;;
22916;SDS011;11624;53.250;7.456;2023-10-31T03:27:55;4.55;;;1.50;;
22916;SDS011;11624;53.250;7.456;2023-10-31T03:30:23;8.63;;;1.50;;
22916;SDS011;11624;53.250;7.456;2023-10-31T03:32:53;8.32;;;1.85;;
22916;SDS011;11624;53.250;7.456;2023-10-31T03:35:21;8.85;;;1.88;;
22916;SDS011;11624;53.250;7.456;2023-10-31T03:37:50;8.25;;;1.95;;
22916;SDS011;11624;53.250;7.456;2023-10-31T03:40:18;10.68;;;1.60;;
22916;SDS011;11624;53.250;7.456;2023-10-31T03:42:47;5.38;;;1.60;;
22916;SDS011;11624;53.250;7.456;2023-10-31T03:45:15;7.18;;;1.65;;
22916;SDS011;11624;53.250;7.456;2023-10-31T03:47:44;5.25;;;1.38;;
22916;SDS011;11624;53.250;7.456;2023-10-31T03:50:14;8.98;;;1.70;;
22916;SDS011;11624;53.250;7.456;2023-10-31T03:52:42;3.38;;;1.48;;
22916;SDS011;11624;53.250;7.456;2023-10-31T03:55:11;7.95;;;1.75;;
22916;SDS011;11624;53.250;7.456;2023-10-31T03:57:39;5.18;;;1.65;;
22916;SDS011;11624;53.250;7.456;2023-10-31T04:00:08;6.28;;;1.52;;
22916;SDS011;11624;53.250;7.456;2023-10-31T04:02:40;8.95;;;1.77;;
22916;SDS011;11624;53.250;7.456;2023-10-31T04:05:09;3.90;;;1.50;;
22916;SDS011;11624;53.250;7.456;2023-10-31T04:07:39;8.32;;;1.70;;
22916;SDS011;11624;53.250;7.456;2023-10-31T04:10:08;9.82;;;1.70;;
22916;SDS011;11624;53.250;7.456;2023-10-31T04:12:36;7.78;;;1.50;;
22916;SDS011;11624;53.250;7.456;2023-10-31T04:15:05;6.68;;;1.70;;
22916;SDS011;11624;53.250;7.456;2023-10-31T04:17:35;6.65;;;1.70;;
22916;SDS011;11624;53.250;7.456;2023-10-31T04:20:03;7.75;;;1.80;;
22916;SDS011;11624;53.250;7.456;2023-10-31T04:22:33;7.10;;;1.65;;
22916;SDS011;11624;53.250;7.456;2023-10-31T04:25:03;6.10;;;1.80;;
22916;SDS011;11624;53.250;7.456;2023-10-31T04:27:32;7.53;;;1.73;;
22916;SDS011;11624;53.250;7.456;2023-10-31T04:30:00;7.15;;;1.73;;
22916;SDS011;11624;53.250;7.456;2023-10-31T04:32:29;10.95;;;2.05;;
22916;SDS011;11624;53.250;7.456;2023-10-31T04:34:57;7.47;;;1.40;;
22916;SDS011;11624;53.250;7.456;2023-10-31T04:37:26;12.38;;;2.13;;
22916;SDS011;11624;53.250;7.456;2023-10-31T04:39:56;7.72;;;1.52;;
22916;SDS011;11624;53.250;7.456;2023-10-31T04:42:26;6.72;;;1.55;;
22916;SDS011;11624;53.250;7.456;2023-10-31T04:44:54;8.00;;;1.83;;
22916;SDS011;11624;53.250;7.456;2023-10-31T04:47:23;5.07;;;0.98;;
22916;SDS011;11624;53.250;7.456;2023-10-31T04:49:51;7.00;;;1.60;;
22916;SDS011;11624;53.250;7.456;2023-10-31T04:52:20;5.03;;;1.45;;
22916;SDS011;11624;53.250;7.456;2023-10-31T04:54:49;6.32;;;1.60;;
22916;SDS011;11624;53.250;7.456;2023-10-31T04:57:17;9.43;;;1.85;;
22916;SDS011;11624;53.250;7.456;2023-10-31T04:59:47;11.63;;;2.45;;
22916;SDS011;11624;53.250;7.456;2023-10-31T05:02:15;12.38;;;1.58;;
22916;SDS011;11624;53.250;7.456;2023-10-31T05:04:44;6.50;;;1.60;;
22916;SDS011;11624;53.250;7.456;2023-10-31T05:07:13;8.90;;;1.45;;
22916;SDS011;11624;53.250;7.456;2023-10-31T05:09:41;6.85;;;1.45;;
22916;SDS011;11624;53.250;7.456;2023-10-31T05:12:12;4.63;;;1.67;;
22916;SDS011;11624;53.250;7.456;2023-10-31T05:14:41;8.25;;;2.03;;
22916;SDS011;11624;53.250;7.456;2023-10-31T05:17:11;8.40;;;2.00;;
22916;SDS011;11624;53.250;7.456;2023-10-31T05:19:39;4.55;;;1.60;;
22916;SDS011;11624;53.250;7.456;2023-10-31T05:22:07;9.40;;;2.25;;
22916;SDS011;11624;53.250;7.456;2023-10-31T05:24:36;7.65;;;1.95;;
22916;SDS011;11624;53.250;7.456;2023-10-31T05:27:07;6.70;;;2.35;;
22916;SDS011;11624;53.250;7.456;2023-10-31T05:29:38;7.65;;;2.33;;
22916;SDS011;11624;53.250;7.456;2023-10-31T05:32:06;6.95;;;2.20;;
22916;SDS011;11624;53.250;7.456;2023-10-31T05:34:37;7.10;;;2.10;;
22916;SDS011;11624;53.250;7.456;2023-10-31T05:37:05;8.77;;;2.20;;
22916;SDS011;11624;53.250;7.456;2023-10-31T05:39:33;11.90;;;2.05;;
22916;SDS011;11624;53.250;7.456;2023-10-31T05:42:03;7.78;;;1.83;;
22916;SDS011;11624;53.250;7.456;2023-10-31T05:44:32;6.65;;;2.10;;
22916;SDS011;11624;53.250;7.456;2023-10-31T05:47:00;8.48;;;2.55;;
22916;SDS011;11624;53.250;7.456;2023-10-31T05:49:28;8.07;;;2.22;;
22916;SDS011;11624;53.250;7.456;2023-10-31T05:51:58;8.95;;;2.75;;
22916;SDS011;11624;53.250;7.456;2023-10-31T05:54:26;7.10;;;2.33;;
22916;SDS011;11624;53.250;7.456;2023-10-31T05:56:55;7.57;;;2.40;;
22916;SDS011;11624;53.250;7.456;2023-10-31T05:59:23;10.50;;;2.55;;
22916;SDS011;11624;53.250;7.456;2023-10-31T06:01:52;9.32;;;2.30;;
22916;SDS011;11624;53.250;7.456;2023-10-31T06:04:20;6.88;;;2.10;;
22916;SDS011;11624;53.250;7.456;2023-10-31T06:06:49;8.60;;;2.97;;
22916;SDS011;11624;53.250;7.456;2023-10-31T06:09:18;8.98;;;2.70;;
22916;SDS011;11624;53.250;7.456;2023-10-31T06:11:47;5.35;;;1.80;;
22916;SDS011;11624;53.250;7.456;2023-10-31T06:14:15;10.27;;;2.50;;
22916;SDS011;11624;53.250;7.456;2023-10-31T06:16:43;5.50;;;1.90;;
22916;SDS011;11624;53.250;7.456;2023-10-31T06:19:12;6.10;;;1.70;;
22916;SDS011;11624;53.250;7.456;2023-10-31T06:21:40;8.07;;;1.80;;
22916;SDS011;11624;53.250;7.456;2023-10-31T06:24:09;6.07;;;1.95;;
22916;SDS011;11624;53.250;7.456;2023-10-31T06:26:38;12.88;;;2.83;;
22916;SDS011;11624;53.250;7.456;2023-10-31T06:29:07;10.07;;;2.30;;
22916;SDS011;11624;53.250;7.456;2023-10-31T06:31:43;7.55;;;2.20;;
22916;SDS011;11624;53.250;7.456;2023-10-31T06:34:11;9.23;;;2.45;;
22916;SDS011;11624;53.250;7.456;2023-10-31T06:36:40;5.95;;;1.77;;
22916;SDS011;11624;53.250;7.456;2023-10-31T06:39:08;4.53;;;1.52;;
22916;SDS011;11624;53.250;7.456;2023-10-31T06:41:36;6.30;;;2.13;;
22916;SDS011;11624;53.250;7.456;2023-10-31T06:44:06;3.95;;;1.42;;
22916;SDS011;11624;53.250;7.456;2023-10-31T06:46:35;6.32;;;1.38;;
22916;SDS011;11624;53.250;7.456;2023-10-31T06:49:03;2.75;;;1.02;;
22916;SDS011;11624;53.250;7.456;2023-10-31T06:51:31;2.60;;;0.93;;
22916;SDS011;11624;53.250;7.456;2023-10-31T06:54:00;1.52;;;0.95;;
22916;SDS011;11624;53.250;7.456;2023-10-31T06:56:28;3.00;;;1.00;;
22916;SDS011;11624;53.250;7.456;2023-10-31T06:58:56;3.58;;;0.88;;
22916;SDS011;11624;53.250;7.456;2023-10-31T07:01:26;1.00;;;0.63;;
22916;SDS011;11624;53.250;7.456;2023-10-31T07:03:55;2.38;;;1.02;;
22916;SDS011;11624;53.250;7.456;2023-10-31T07:06:23;1.90;;;0.95;;
22916;SDS011;11624;53.250;7.456;2023-10-31T07:08:51;4.22;;;1.20;;
22916;SDS011;11624;53.250;7.456;2023-10-31T07:11:20;4.60;;;1.25;;
22916;SDS011;11624;53.250;7.456;2023-10-31T07:13:48;1.52;;;0.80;;
22916;SDS011;11624;53.250;7.456;2023-10-31T07:16:17;2.33;;;0.70;;
22916;SDS011;11624;53.250;7.456;2023-10-31T07:18:46;3.13;;;1.08;;
22916;SDS011;11624;53.250;7.456;2023-10-31T07:21:14;1.98;;;1.00;;
22916;SDS011;11624;53.250;7.456;2023-10-31T07:23:43;5.18;;;1.40;;
22916;SDS011;11624;53.250;7.456;2023-10-31T07:26:11;6.80;;;1.27;;
22916;SDS011;11624;53.250;7.456;2023-10-31T07:28:40;4.88;;;1.17;;
22916;SDS011;11624;53.250;7.456;2023-10-31T07:31:08;4.20;;;1.05;;
22916;SDS011;11624;53.250;7.456;2023-10-31T07:33:36;3.83;;;1.20;;
22916;SDS011;11624;53.250;7.456;2023-10-31T07:36:07;2.35;;;1.20;;
22916;SDS011;11624;53.250;7.456;2023-10-31T07:38:35;5.70;;;1.30;;
22916;SDS011;11624;53.250;7.456;2023-10-31T07:41:04;4.53;;;1.40;;
22916;SDS011;11624;53.250;7.456;2023-10-31T07:43:32;2.45;;;1.08;;
22916;SDS011;11624;53.250;7.456;2023-10-31T07:46:04;3.33;;;1.30;;
22916;SDS011;11624;53.250;7.456;2023-10-31T07:48:33;3.22;;;1.27;;
22916;SDS011;11624;53.250;7.456;2023-10-31T07:51:01;2.85;;;1.15;;
22916;SDS011;11624;53.250;7.456;2023-10-31T07:53:31;4.25;;;1.42;;
22916;SDS011;11624;53.250;7.456;2023-10-31T07:55:59;4.32;;;1.90;;
22916;SDS011;11624;53.250;7.456;2023-10-31T07:58:28;4.65;;;1.17;;
22916;SDS011;11624;53.250;7.456;2023-10-31T08:00:56;4.10;;;1.40;;
22916;SDS011;11624;53.250;7.456;2023-10-31T08:03:25;5.57;;;1.52;;
22916;SDS011;11624;53.250;7.456;2023-10-31T08:05:53;3.53;;;1.48;;
22916;SDS011;11624;53.250;7.456;2023-10-31T08:08:22;5.22;;;1.95;;
22916;SDS011;11624;53.250;7.456;2023-10-31T08:10:51;7.47;;;2.00;;
22916;SDS011;11624;53.250;7.456;2023-10-31T08:13:20;7.07;;;2.20;;
22916;SDS011;11624;53.250;7.456;2023-10-31T08:15:48;9.55;;;2.50;;
22916;SDS011;11624;53.250;7.456;2023-10-31T08:18:17;8.13;;;2.53;;
22916;SDS011;11624;53.250;7.456;2023-10-31T08:20:45;9.73;;;3.15;;
22916;SDS011;11624;53.250;7.456;2023-10-31T08:23:16;9.68;;;3.50;;
22916;SDS011;11624;53.250;7.456;2023-10-31T08:25:44;10.77;;;3.97;;
22916;SDS011;11624;53.250;7.456;2023-10-31T08:28:14;13.88;;;4.68;;
22916;SDS011;11624;53.250;7.456;2023-10-31T08:30:43;13.00;;;4.47;;
22916;SDS011;11624;53.250;7.456;2023-10-31T08:33:11;12.98;;;4.72;;
22916;SDS011;11624;53.250;7.456;2023-10-31T08:35:40;12.80;;;4.53;;
22916;SDS011;11624;53.250;7.456;2023-10-31T08:38:09;12.75;;;4.00;;
22916;SDS011;11624;53.250;7.456;2023-10-31T08:40:52;17.08;;;4.72;;
22916;SDS011;11624;53.250;7.456;2023-10-31T08:43:22;15.65;;;4.32;;
22916;SDS011;11624;53.250;7.456;2023-10-31T08:45:50;13.50;;;4.15;;
22916;SDS011;11624;53.250;7.456;2023-10-31T08:48:19;12.57;;;4.10;;
22916;SDS011;11624;53.250;7.456;2023-10-31T08:50:47;13.45;;;4.55;;
22916;SDS011;11624;53.250;7.456;2023-10-31T08:53:16;13.60;;;4.35;;
22916;SDS011;11624;53.250;7.456;2023-10-31T08:55:46;17.17;;;5.25;;
22916;SDS011;11624;53.250;7.456;2023-10-31T08:58:14;14.43;;;4.78;;
22916;SDS011;11624;53.250;7.456;2023-10-31T09:00:46;12.88;;;4.43;;
22916;SDS011;11624;53.250;7.456;2023-10-31T09:03:14;11.32;;;4.65;;
22916;SDS011;11624;53.250;7.456;2023-10-31T09:05:43;12.23;;;4.35;;
22916;SDS011;11624;53.250;7.456;2023-10-31T09:08:11;9.40;;;3.75;;
22916;SDS011;11624;53.250;7.456;2023-10-31T09:10:39;11.27;;;3.88;;
22916;SDS011;11624;53.250;7.456;2023-10-31T09:13:09;11.80;;;4.07;;
22916;SDS011;11624;53.250;7.456;2023-10-31T09:15:37;12.20;;;3.63;;
22916;SDS011;11624;53.250;7.456;2023-10-31T09:18:07;12.90;;;3.58;;
22916;SDS011;11624;53.250;7.456;2023-10-31T09:20:36;9.23;;;3.30;;
22916;SDS011;11624;53.250;7.456;2023-10-31T09:23:04;7.53;;;2.67;;
22916;SDS011;11624;53.250;7.456;2023-10-31T09:25:32;5.90;;;2.40;;
22916;SDS011;11624;53.250;7.456;2023-10-31T09:28:01;7.65;;;2.05;;
22916;SDS011;11624;53.250;7.456;2023-10-31T09:30:29;7.10;;;1.80;;
22916;SDS011;11624;53.250;7.456;2023-10-31T09:32:58;4.55;;;1.52;;
22916;SDS011;11624;53.250;7.456;2023-10-31T09:35:28;6.13;;;1.73;;
22916;SDS011;11624;53.250;7.456;2023-10-31T09:37:57;3.85;;;1.13;;
22916;SDS011;11624;53.250;7.456;2023-10-31T09:40:25;5.85;;;1.60;;
22916;SDS011;11624;53.250;7.456;2023-10-31T09:42:54;10.13;;;1.80;;
22916;SDS011;11624;53.250;7.456;2023-10-31T09:45:23;8.25;;;1.38;;
22916;SDS011;11624;53.250;7.456;2023-10-31T09:47:51;6.57;;;1.50;;
22916;SDS011;11624;53.250;7.456;2023-10-31T09:50:21;3.42;;;1.20;;
22916;SDS011;11624;53.250;7.456;2023-10-31T09:52:51;7.85;;;1.75;;
22916;SDS011;11624;53.250;7.456;2023-10-31T09:55:20;4.15;;;1.40;;
22916;SDS011;11624;53.250;7.456;2023-10-31T09:57:50;7.88;;;1.55;;
22916;SDS011;11624;53.250;7.456;2023-10-31T10:00:18;4.57;;;1.30;;
22916;SDS011;11624;53.250;7.456;2023-10-31T10:02:47;8.65;;;1.25;;
22916;SDS011;11624;53.250;7.456;2023-10-31T10:05:17;4.38;;;1.70;;
22916;SDS011;11624;53.250;7.456;2023-10-31T10:07:46;7.78;;;2.28;;
22916;SDS011;11624;53.250;7.456;2023-10-31T10:10:18;6.45;;;1.55;;
22916;SDS011;11624;53.250;7.456;2023-10-31T10:12:47;4.20;;;1.02;;
22916;SDS011;11624;53.250;7.456;2023-10-31T10:15:15;2.50;;;0.93;;
22916;SDS011;11624;53.250;7.456;2023-10-31T10:17:48;4.30;;;0.73;;
22916;SDS011;11624;53.250;7.456;2023-10-31T10:20:17;5.80;;;0.77;;
22916;SDS011;11624;53.250;7.456;2023-10-31T10:22:46;3.53;;;0.57;;
22916;SDS011;11624;53.250;7.456;2023-10-31T10:25:16;3.17;;;0.40;;
22916;SDS011;11624;53.250;7.456;2023-10-31T10:27:47;3.40;;;0.65;;
22916;SDS011;11624;53.250;7.456;2023-10-31T10:30:15;5.38;;;1.33;;
22916;SDS011;11624;53.250;7.456;2023-10-31T10:32:43;3.22;;;1.15;;
22916;SDS011;11624;53.250;7.456;2023-10-31T10:35:12;7.57;;;0.98;;
22916;SDS011;11624;53.250;7.456;2023-10-31T10:37:42;2.25;;;0.45;;
22916;SDS011;11624;53.250;7.456;2023-10-31T10:40:12;4.13;;;0.47;;
22916;SDS011;11624;53.250;7.456;2023-10-31T10:42:45;3.10;;;0.50;;
22916;SDS011;11624;53.250;7.456;2023-10-31T10:45:15;3.05;;;0.70;;
22916;SDS011;11624;53.250;7.456;2023-10-31T10:47:46;0.98;;;0.45;;
22916;SDS011;11624;53.250;7.456;2023-10-31T10:50:15;5.20;;;0.90;;
22916;SDS011;11624;53.250;7.456;2023-10-31T10:52:49;6.32;;;0.65;;
22916;SDS011;11624;53.250;7.456;2023-10-31T10:55:24;0.80;;;0.43;;
22916;SDS011;11624;53.250;7.456;2023-10-31T10:57:56;6.05;;;1.33;;
22916;SDS011;11624;53.250;7.456;2023-10-31T11:00:28;1.80;;;0.45;;
22916;SDS011;11624;53.250;7.456;2023-10-31T11:02:57;5.93;;;0.82;;
22916;SDS011;11624;53.250;7.456;2023-10-31T11:05:27;1.42;;;0.60;;
22916;SDS011;11624;53.250;7.456;2023-10-31T11:07:56;1.55;;;0.30;;
22916;SDS011;11624;53.250;7.456;2023-10-31T11:10:26;0.88;;;0.43;;
22916;SDS011;11624;53.250;7.456;2023-10-31T11:12:57;6.68;;;0.93;;
22916;SDS011;11624;53.250;7.456;2023-10-31T11:15:25;3.15;;;0.60;;
22916;SDS011;11624;53.250;7.456;2023-10-31T11:17:55;4.38;;;0.77;;
22916;SDS011;11624;53.250;7.456;2023-10-31T11:20:24;2.85;;;0.63;;
22916;SDS011;11624;53.250;7.456;2023-10-31T11:22:56;5.95;;;0.82;;
22916;SDS011;11624;53.250;7.456;2023-10-31T11:25:25;6.57;;;0.90;;
22916;SDS011;11624;53.250;7.456;2023-10-31T11:28:11;3.05;;;0.45;;
22916;SDS011;11624;53.250;7.456;2023-10-31T11:30:41;4.45;;;0.50;;
22916;SDS011;11624;53.250;7.456;2023-10-31T11:33:13;3.90;;;0.70;;
22916;SDS011;11624;53.250;7.456;2023-10-31T11:35:43;1.08;;;0.40;;
22916;SDS011;11624;53.250;7.456;2023-10-31T11:38:12;0.82;;;0.20;;
22916;SDS011;11624;53.250;7.456;2023-10-31T11:40:57;1.02;;;0.40;;
22916;SDS011;11624;53.250;7.456;2023-10-31T11:46:20;2.60;;;0.32;;
22916;SDS011;11624;53.250;7.456;2023-10-31T11:48:52;3.20;;;0.68;;
22916;SDS011;11624;53.250;7.456;2023-10-31T11:51:23;2.22;;;0.63;;
22916;SDS011;11624;53.250;7.456;2023-10-31T11:53:51;2.65;;;0.45;;
22916;SDS011;11624;53.250;7.456;2023-10-31T11:56:20;1.15;;;0.43;;
22916;SDS011;11624;53.250;7.456;2023-10-31T11:58:57;3.45;;;0.82;;
22916;SDS011;11624;53.250;7.456;2023-10-31T12:01:26;3.75;;;0.55;;
22916;SDS011;11624;53.250;7.456;2023-10-31T12:03:55;2.35;;;0.70;;
22916;SDS011;11624;53.250;7.456;2023-10-31T12:06:23;4.30;;;0.77;;
22916;SDS011;11624;53.250;7.456;2023-10-31T12:08:52;4.38;;;0.80;;
22916;SDS011;11624;53.250;7.456;2023-10-31T12:11:21;5.75;;;0.65;;
22916;SDS011;11624;53.250;7.456;2023-10-31T12:13:54;3.25;;;0.70;;
22916;SDS011;11624;53.250;7.456;2023-10-31T12:16:27;3.97;;;0.70;;
22916;SDS011;11624;53.250;7.456;2023-10-31T12:18:57;1.70;;;0.65;;
22916;SDS011;11624;53.250;7.456;2023-10-31T12:21:36;5.72;;;1.00;;
22916;SDS011;11624;53.250;7.456;2023-10-31T12:24:06;4.65;;;0.70;;
22916;SDS011;11624;53.250;7.456;2023-10-31T12:26:36;7.13;;;1.05;;
22916;SDS011;11624;53.250;7.456;2023-10-31T12:29:12;5.68;;;0.90;;
22916;SDS011;11624;53.250;7.456;2023-10-31T12:31:45;4.00;;;0.85;;
22916;SDS011;11624;53.250;7.456;2023-10-31T12:34:15;2.58;;;0.82;;
22916;SDS011;11624;53.250;7.456;2023-10-31T12:36:44;4.45;;;0.90;;
22916;SDS011;11624;53.250;7.456;2023-10-31T12:39:14;2.97;;;0.77;;
22916;SDS011;11624;53.250;7.456;2023-10-31T12:41:44;2.80;;;1.00;;
22916;SDS011;11624;53.250;7.456;2023-10-31T12:44:14;6.00;;;1.00;;
22916;SDS011;11624;53.250;7.456;2023-10-31T12:46:46;4.38;;;1.13;;
22916;SDS011;11624;53.250;7.456;2023-10-31T12:49:16;4.80;;;1.17;;
22916;SDS011;11624;53.250;7.456;2023-10-31T12:51:58;4.10;;;0.95;;
22916;SDS011;11624;53.250;7.456;2023-10-31T12:54:28;4.93;;;0.82;;
22916;SDS011;11624;53.250;7.456;2023-10-31T12:57:00;7.38;;;1.00;;
22916;SDS011;11624;53.250;7.456;2023-10-31T12:59:32;6.25;;;1.33;;
22916;SDS011;11624;53.250;7.456;2023-10-31T13:02:03;4.90;;;0.80;;
22916;SDS011;11624;53.250;7.456;2023-10-31T13:04:33;5.38;;;0.98;;
22916;SDS011;11624;53.250;7.456;2023-10-31T13:07:05;3.80;;;0.75;;
22916;SDS011;11624;53.250;7.456;2023-10-31T13:09:35;5.93;;;0.70;;
22916;SDS011;11624;53.250;7.456;2023-10-31T13:12:09;7.90;;;1.00;;
22916;SDS011;11624;53.250;7.456;2023-10-31T13:14:41;5.45;;;1.00;;
22916;SDS011;11624;53.250;7.456;2023-10-31T13:17:10;3.92;;;1.10;;
22916;SDS011;11624;53.250;7.456;2023-10-31T13:19:38;5.95;;;1.13;;
22916;SDS011;11624;53.250;7.456;2023-10-31T13:22:07;4.97;;;0.85;;
22916;SDS011;11624;53.250;7.456;2023-10-31T13:24:36;12.52;;;1.50;;
22916;SDS011;11624;53.250;7.456;2023-10-31T13:27:04;5.75;;;1.00;;
22916;SDS011;11624;53.250;7.456;2023-10-31T13:29:34;4.07;;;0.90;;
22916;SDS011;11624;53.250;7.456;2023-10-31T13:32:04;5.45;;;0.75;;
22916;SDS011;11624;53.250;7.456;2023-10-31T13:34:33;10.15;;;1.50;;
22916;SDS011;11624;53.250;7.456;2023-10-31T13:37:01;6.43;;;0.90;;
22916;SDS011;11624;53.250;7.456;2023-10-31T13:39:30;4.88;;;0.90;;
22916;SDS011;11624;53.250;7.456;2023-10-31T13:41:58;5.22;;;0.98;;
22916;SDS011;11624;53.250;7.456;2023-10-31T13:44:27;9.35;;;1.20;;
22916;SDS011;11624;53.250;7.456;2023-10-31T13:46:55;4.47;;;0.88;;
22916;SDS011;11624;53.250;7.456;2023-10-31T13:49:25;2.42;;;0.93;;
22916;SDS011;11624;53.250;7.456;2023-10-31T13:51:53;8.52;;;1.25;;
22916;SDS011;11624;53.250;7.456;2023-10-31T13:54:22;4.80;;;0.98;;
22916;SDS011;11624;53.250;7.456;2023-10-31T13:56:50;6.43;;;1.27;;
22916;SDS011;11624;53.250;7.456;2023-10-31T13:59:18;7.75;;;1.38;;
22916;SDS011;11624;53.250;7.456;2023-10-31T14:01:47;3.75;;;0.75;;
22916;SDS011;11624;53.250;7.456;2023-10-31T14:04:15;4.75;;;0.93;;
22916;SDS011;11624;53.250;7.456;2023-10-31T14:06:45;5.53;;;1.10;;
22916;SDS011;11624;53.250;7.456;2023-10-31T14:09:14;6.45;;;0.60;;
22916;SDS011;11624;53.250;7.456;2023-10-31T14:11:43;6.72;;;1.30;;
22916;SDS011;11624;53.250;7.456;2023-10-31T14:14:11;4.65;;;1.05;;
22916;SDS011;11624;53.250;7.456;2023-10-31T14:16:40;6.75;;;1.08;;
22916;SDS011;11624;53.250;7.456;2023-10-31T14:19:10;2.85;;;0.90;;
22916;SDS011;11624;53.250;7.456;2023-10-31T14:21:39;6.45;;;0.85;;
22916;SDS011;11624;53.250;7.456;2023-10-31T14:24:10;4.55;;;1.00;;
22916;SDS011;11624;53.250;7.456;2023-10-31T14:26:39;4.07;;;0.85;;
22916;SDS011;11624;53.250;7.456;2023-10-31T14:29:10;4.95;;;1.20;;
22916;SDS011;11624;53.250;7.456;2023-10-31T14:31:39;8.10;;;0.93;;
22916;SDS011;11624;53.250;7.456;2023-10-31T14:34:09;7.55;;;1.48;;
22916;SDS011;11624;53.250;7.456;2023-10-31T14:36:38;2.53;;;0.85;;
22916;SDS011;11624;53.250;7.456;2023-10-31T14:39:07;1.92;;;0.80;;
22916;SDS011;11624;53.250;7.456;2023-10-31T14:41:38;5.82;;;0.93;;
22916;SDS011;11624;53.250;7.456;2023-10-31T14:44:06;3.35;;;0.70;;
22916;SDS011;11624;53.250;7.456;2023-10-31T14:46:36;8.98;;;1.48;;
22916;SDS011;11624;53.250;7.456;2023-10-31T14:49:04;8.13;;;1.42;;
22916;SDS011;11624;53.250;7.456;2023-10-31T14:51:33;5.97;;;1.05;;
22916;SDS011;11624;53.250;7.456;2023-10-31T14:54:02;5.03;;;1.45;;
22916;SDS011;11624;53.250;7.456;2023-10-31T14:56:31;6.50;;;1.23;;
22916;SDS011;11624;53.250;7.456;2023-10-31T14:59:02;5.15;;;1.13;;